• Join FlightAware (Why Join?)
  • Login
  • US Flag 
10:25AM EDT


 

Airport Tracker/Info


-or-


 

Live Flight TrackerFlight Track Log ✈ CJT574 ✈ 10-Jul-2013 ✈ CYEG - CYWG

Flight Track Log - Related Links

Times and Time Zones

All times are in EDT time to prevent confusion due to time zone crossing. See the CJT574 flight status page for this flight to view local times or setup timezone preferences in your user account.

Time Position Orientation Groundspeed Altitude Reporting Facility
EDT Latitude Longitude Course Direction KTS MPH feet Rate Location/Type
11:47PM 53.2833 -113.6333 329° Northwest 150 173 2,900  Level Edmonton Center
11:48PM 53.3167 -113.6667 329° Northwest 190 219 4,700 1,380 Climbing Edmonton Center
11:49PM 53.3500 -113.6167 42° Northeast 220 253 5,700 1,380 Climbing Edmonton Center
11:50PM 53.3333 -113.5000 103° East 260 299 7,500 1,860 Climbing Edmonton Center
11:51PM 53.3333 -113.3667 90° East 290 334 9,500 1,800 Climbing Edmonton Center
11:52PM 53.3000 -113.2167 110° East 330 380 11,100 1,320 Climbing Edmonton Center
11:53PM 53.3000 -113.0500 90° East 360 414 12,200 1,380 Climbing Edmonton Center
11:54PM 53.2833 -112.8667 99° East 400 460 13,900 1,440 Climbing Edmonton Center
11:55PM 53.2833 -112.6667 90° East 410 472 15,100 1,620 Climbing Edmonton Center
11:56PM 53.2500 -112.5000 108° East 420 483 17,200 1,800 Climbing Edmonton Center
11:57PM 53.2333 -112.2667 97° East 430 495 18,800 1,440 Climbing Edmonton Center
11:58PM 53.2000 -112.0833 107° East 440 506 20,100 1,440 Climbing Edmonton Center
11:59PM 53.1500 -111.8833 113° Southeast 440 506 21,700 1,380 Climbing Edmonton Center
12:00AM 53.1167 -111.6833 105° East 450 518 22,900 1,080 Climbing Edmonton Center
12:01AM 53.0833 -111.4667 104° East 460 529 23,900 1,200 Climbing Edmonton Center
12:02AM 53.0333 -111.2667 113° Southeast 470 541 25,300 1,080 Climbing Edmonton Center
12:03AM 53.0000 -111.0333 103° East 480 552 26,100 960 Climbing Edmonton Center
12:04AM 52.9667 -110.8333 105° East 480 552 27,300 1,140 Climbing Edmonton Center
12:05AM 52.9000 -110.6333 119° Southeast 490 564 28,400 960 Climbing Edmonton Center
12:06AM 52.8833 -110.4000 97° East 490 564 29,300 900 Climbing Edmonton Center
12:07AM 52.8333 -110.2000 112° Southeast 490 564 30,300 1,080 Climbing Edmonton Center
12:08AM 52.8167 -110.0333 99° East 490 564 31,400 900 Climbing Winnipeg Center
12:09AM 52.7833 -109.8000 103° East 490 564 32,000 540 Climbing Winnipeg Center
12:10AM 52.7333 -109.6000 112° Southeast 500 575 32,500 420 Climbing Winnipeg Center
12:11AM 52.7000 -109.3833 104° East 500 575 32,900 240 Climbing Winnipeg Center
12:12AM 52.6500 -109.1500 109° East 500 575 33,000  Climbing Winnipeg Center
12:13AM 52.6000 -108.9333 111° Southeast 500 575 33,000  Level Winnipeg Center
12:14AM 52.5667 -108.7000 103° East 500 575 33,000  Level Winnipeg Center
12:15AM 52.5333 -108.5333 108° East 490 564 33,000  Level Winnipeg Center
12:16AM 52.4833 -108.3000 109° East 480 552 33,000  Level Winnipeg Center
12:17AM 52.4333 -108.0833 111° Southeast 490 564 33,000  Level Winnipeg Center
12:18AM 52.3833 -107.8833 112° Southeast 490 564 33,000  Level Winnipeg Center
12:19AM 52.3500 -107.6833 105° East 490 564 33,000  Level Winnipeg Center
12:20AM 52.3000 -107.4833 112° Southeast 480 552 33,000  Level Winnipeg Center
12:21AM 52.2667 -107.2500 103° East 490 564 33,000  Level Winnipeg Center
12:22AM 52.2333 -107.0500 105° East 480 552 33,000  Level Winnipeg Center
12:23AM 52.1833 -106.8167 109° East 500 575 33,000  Level Winnipeg Center
12:24AM 52.1333 -106.6167 112° Southeast 490 564 33,000  Level Winnipeg Center
12:25AM 52.1000 -106.4167 105° East 500 575 33,000  Level Winnipeg Center
12:26AM 52.0500 -106.1833 109° East 500 575 33,000  Level Winnipeg Center
12:27AM 52.0167 -105.9833 105° East 500 575 33,000  Level Winnipeg Center
12:28AM 51.9667 -105.7500 109° East 510 587 33,000  Level Winnipeg Center
12:29AM 51.9333 -105.5500 105° East 510 587 33,000  Level Winnipeg Center
12:30AM 51.8667 -105.3333 116° Southeast 510 587 33,000  Level Winnipeg Center
12:31AM 51.8167 -105.1000 109° East 510 587 33,000  Level Winnipeg Center
12:32AM 51.7833 -104.8833 104° East 510 587 33,000  Level Winnipeg Center
12:33AM 51.7333 -104.6833 112° Southeast 500 575 33,000  Level Winnipeg Center
12:34AM 51.7000 -104.4833 105° East 500 575 33,000  Level Winnipeg Center
12:35AM 51.6500 -104.2500 109° East 500 575 33,000  Level Winnipeg Center
12:36AM 51.6000 -104.0333 110° East 500 575 33,000  Level Winnipeg Center
12:37AM 51.5500 -103.8167 110° East 500 575 33,000  Level Winnipeg Center
12:38AM 51.5167 -103.6167 105° East 500 575 33,000  Level Winnipeg Center
12:39AM 51.4667 -103.3833 109° East 500 575 33,000  Level Winnipeg Center
12:40AM 51.4000 -103.2000 120° Southeast 500 575 33,000  Level Winnipeg Center
12:41AM 51.3667 -102.9667 103° East 500 575 33,000  Level Winnipeg Center
12:42AM 51.3000 -102.7833 120° Southeast 500 575 33,000  Level Winnipeg Center
12:43AM 51.2667 -102.5667 104° East 500 575 33,000  Level Winnipeg Center
12:44AM 51.2167 -102.3333 109° East 510 587 33,000  Level Winnipeg Center
12:45AM 51.1667 -102.1167 110° East 510 587 33,000  Level Winnipeg Center
12:46AM 51.1333 -101.9000 104° East 510 587 33,000  Level Winnipeg Center
12:47AM 51.0833 -101.7167 113° Southeast 510 587 33,000  Level Winnipeg Center
12:48AM 51.0333 -101.4833 109° East 510 587 33,000  Level Winnipeg Center
12:49AM 50.9833 -101.2667 110° East 510 587 33,000  Level Winnipeg Center
12:50AM 50.9500 -101.0500 104° East 520 598 33,000  Level Winnipeg Center
12:51AM 50.8833 -100.8333 116° Southeast 520 598 33,000  Level Winnipeg Center
12:52AM 50.8500 -100.6167 104° East 520 598 33,000  Level Winnipeg Center
12:53AM 50.8000 -100.4167 112° Southeast 520 598 33,000  Level Winnipeg Center
12:54AM 50.7500 -100.2000 110° East 520 598 33,000  Level Winnipeg Center
12:55AM 50.7000 -99.9833 110° East 520 598 33,000  Level Winnipeg Center
12:56AM 50.6500 -99.7667 110° East 520 598 33,000  Level Winnipeg Center
12:57AM 50.6000 -99.5500 110° East 520 598 33,000  Level Winnipeg Center
12:58AM 50.5500 -99.3333 110° East 520 598 33,000 -780 Level Winnipeg Center
12:59AM 50.5000 -99.1167 110° East 520 598 31,500 -2,100 Descending Winnipeg Center
01:00AM 50.4500 -98.9167 111° Southeast 510 587 28,900 -2,700 Descending Winnipeg Center
01:01AM 50.4000 -98.7167 111° Southeast 490 564 26,200 -2,940 Descending Winnipeg Center
01:02AM 50.3500 -98.5167 111° Southeast 470 541 23,100 -2,940 Descending Winnipeg Center
01:03AM 50.3167 -98.3500 107° East 450 518 20,400 -3,120 Descending Winnipeg Center
01:04AM 50.2667 -98.1667 113° Southeast 440 506 16,900 -3,480 Descending Winnipeg Center
01:05AM 50.2500 -97.9833 98° East 430 495 13,500 -2,640 Descending Winnipeg Center
01:06AM 50.2000 -97.8333 117° Southeast 400 460 11,700 -1,440 Descending Winnipeg Center
01:07AM 50.1667 -97.6667 107° East 340 391 10,700 -1,380 Descending Winnipeg Center
01:08AM 50.1333 -97.5667 117° Southeast 280 322 9,000 -2,580 Descending Winnipeg Center
01:09AM 50.1000 -97.4667 117° Southeast 270 311 5,600 -2,640 Descending Winnipeg Center
01:10AM 50.0833 -97.3333 101° East 290 334 3,800 -1,140 Descending Winnipeg Center
01:11AM 50.0500 -97.2333 117° Southeast 250 288 3,400 -420 Descending Winnipeg Center
01:12AM 50.0000 -97.2000 157° South 190 219 3,000 -900 Descending Winnipeg Center
01:13AM 49.9500 -97.2333 203° Southwest 170 196 1,700 -1,140 Descending Winnipeg Center
01:14AM 49.9167 -97.2333 180° South 140 161 800 -900 Descending Winnipeg Center